sensor_id;sensor_type;location;lat;lon;timestamp;pressure;altitude;pressure_sealevel;temperature
79228;BMP280;68658;46.174;11.254;2023-04-15T00:00:33;91473.22;;;4.08
79228;BMP280;68658;46.174;11.254;2023-04-15T00:02:59;91471.03;;;3.90
79228;BMP280;68658;46.174;11.254;2023-04-15T00:05:29;91474.81;;;3.89
79228;BMP280;68658;46.174;11.254;2023-04-15T00:07:54;91470.06;;;3.93
79228;BMP280;68658;46.174;11.254;2023-04-15T00:10:20;91467.25;;;4.02
79228;BMP280;68658;46.174;11.254;2023-04-15T00:12:45;91477.91;;;3.87
79228;BMP280;68658;46.174;11.254;2023-04-15T00:15:11;91468.16;;;3.88
79228;BMP280;68658;46.174;11.254;2023-04-15T00:17:36;91472.91;;;3.84
79228;BMP280;68658;46.174;11.254;2023-04-15T00:20:04;91470.53;;;3.86
79228;BMP280;68658;46.174;11.254;2023-04-15T00:22:31;91465.47;;;3.66
79228;BMP280;68658;46.174;11.254;2023-04-15T00:24:56;91463.78;;;3.63
79228;BMP280;68658;46.174;11.254;2023-04-15T00:27:22;91460.94;;;3.61
79228;BMP280;68658;46.174;11.254;2023-04-15T00:29:47;91462.34;;;3.57
79228;BMP280;68658;46.174;11.254;2023-04-15T00:32:13;91461.72;;;3.31
79228;BMP280;68658;46.174;11.254;2023-04-15T00:34:38;91466.09;;;3.50
79228;BMP280;68658;46.174;11.254;2023-04-15T00:37:04;91460.84;;;3.39
79228;BMP280;68658;46.174;11.254;2023-04-15T00:39:29;91454.19;;;3.38
79228;BMP280;68658;46.174;11.254;2023-04-15T00:41:55;91461.28;;;3.32
79228;BMP280;68658;46.174;11.254;2023-04-15T00:44:21;91467.41;;;3.29
79228;BMP280;68658;46.174;11.254;2023-04-15T00:46:50;91454.81;;;3.22
79228;BMP280;68658;46.174;11.254;2023-04-15T00:49:15;91460.28;;;3.24
79228;BMP280;68658;46.174;11.254;2023-04-15T00:51:42;91461.63;;;3.14
79228;BMP280;68658;46.174;11.254;2023-04-15T00:54:09;91463.25;;;3.06
79228;BMP280;68658;46.174;11.254;2023-04-15T00:56:35;91460.63;;;3.06
79228;BMP280;68658;46.174;11.254;2023-04-15T00:59:02;91455.00;;;3.13
79228;BMP280;68658;46.174;11.254;2023-04-15T01:01:28;91457.78;;;3.04
79228;BMP280;68658;46.174;11.254;2023-04-15T01:03:56;91461.56;;;3.03
79228;BMP280;68658;46.174;11.254;2023-04-15T01:06:23;91465.38;;;3.03
79228;BMP280;68658;46.174;11.254;2023-04-15T01:08:48;91461.84;;;3.11
79228;BMP280;68658;46.174;11.254;2023-04-15T01:11:14;91463.31;;;3.17
79228;BMP280;68658;46.174;11.254;2023-04-15T01:13:40;91458.28;;;3.08
79228;BMP280;68658;46.174;11.254;2023-04-15T01:16:07;91460.41;;;3.10
79228;BMP280;68658;46.174;11.254;2023-04-15T01:18:33;91462.78;;;3.08
79228;BMP280;68658;46.174;11.254;2023-04-15T01:21:02;91453.47;;;2.96
79228;BMP280;68658;46.174;11.254;2023-04-15T01:23:32;91456.03;;;2.91
79228;BMP280;68658;46.174;11.254;2023-04-15T01:25:58;91456.78;;;2.97
79228;BMP280;68658;46.174;11.254;2023-04-15T01:28:24;91462.03;;;3.02
79228;BMP280;68658;46.174;11.254;2023-04-15T01:30:50;91464.16;;;3.03
79228;BMP280;68658;46.174;11.254;2023-04-15T01:33:15;91464.28;;;2.84
79228;BMP280;68658;46.174;11.254;2023-04-15T01:35:41;91453.78;;;2.73
79228;BMP280;68658;46.174;11.254;2023-04-15T01:38:09;91452.75;;;2.65
79228;BMP280;68658;46.174;11.254;2023-04-15T01:40:35;91462.94;;;2.63
79228;BMP280;68658;46.174;11.254;2023-04-15T01:43:04;91455.81;;;2.63
79228;BMP280;68658;46.174;11.254;2023-04-15T01:45:29;91451.97;;;2.53
79228;BMP280;68658;46.174;11.254;2023-04-15T01:47:55;91456.44;;;2.53
79228;BMP280;68658;46.174;11.254;2023-04-15T01:50:20;91462.81;;;2.46
79228;BMP280;68658;46.174;11.254;2023-04-15T01:52:46;91455.91;;;2.43
79228;BMP280;68658;46.174;11.254;2023-04-15T01:55:13;91451.03;;;2.31
79228;BMP280;68658;46.174;11.254;2023-04-15T01:57:39;91462.38;;;2.53
79228;BMP280;68658;46.174;11.254;2023-04-15T02:00:05;91455.69;;;2.47
79228;BMP280;68658;46.174;11.254;2023-04-15T02:02:32;91457.75;;;2.37
79228;BMP280;68658;46.174;11.254;2023-04-15T02:04:57;91465.41;;;2.46
79228;BMP280;68658;46.174;11.254;2023-04-15T02:07:23;91465.84;;;2.45
79228;BMP280;68658;46.174;11.254;2023-04-15T02:09:48;91476.13;;;2.28
79228;BMP280;68658;46.174;11.254;2023-04-15T02:12:14;91472.16;;;2.33
79228;BMP280;68658;46.174;11.254;2023-04-15T02:14:39;91461.38;;;2.45
79228;BMP280;68658;46.174;11.254;2023-04-15T02:17:05;91469.69;;;2.49
79228;BMP280;68658;46.174;11.254;2023-04-15T02:19:34;91470.81;;;2.43
79228;BMP280;68658;46.174;11.254;2023-04-15T02:22:00;91471.38;;;2.27
79228;BMP280;68658;46.174;11.254;2023-04-15T02:24:27;91475.72;;;2.35
79228;BMP280;68658;46.174;11.254;2023-04-15T02:26:53;91472.63;;;2.31
79228;BMP280;68658;46.174;11.254;2023-04-15T02:29:18;91469.75;;;2.29
79228;BMP280;68658;46.174;11.254;2023-04-15T02:31:44;91470.25;;;2.33
79228;BMP280;68658;46.174;11.254;2023-04-15T02:34:09;91471.38;;;2.27
79228;BMP280;68658;46.174;11.254;2023-04-15T02:36:35;91476.47;;;2.16
79228;BMP280;68658;46.174;11.254;2023-04-15T02:39:01;91475.16;;;2.26
79228;BMP280;68658;46.174;11.254;2023-04-15T02:41:28;91471.88;;;2.31
79228;BMP280;68658;46.174;11.254;2023-04-15T02:43:54;91477.91;;;2.17
79228;BMP280;68658;46.174;11.254;2023-04-15T02:46:20;91473.09;;;2.10
79228;BMP280;68658;46.174;11.254;2023-04-15T02:48:47;91473.50;;;2.03
79228;BMP280;68658;46.174;11.254;2023-04-15T02:51:14;91466.50;;;1.89
79228;BMP280;68658;46.174;11.254;2023-04-15T02:53:40;91469.88;;;1.95
79228;BMP280;68658;46.174;11.254;2023-04-15T02:56:06;91471.38;;;2.02
79228;BMP280;68658;46.174;11.254;2023-04-15T02:58:33;91453.28;;;1.93
79228;BMP280;68658;46.174;11.254;2023-04-15T03:00:59;91466.75;;;1.91
79228;BMP280;68658;46.174;11.254;2023-04-15T03:03:24;91459.31;;;2.04
79228;BMP280;68658;46.174;11.254;2023-04-15T03:05:52;91467.00;;;2.13
79228;BMP280;68658;46.174;11.254;2023-04-15T03:08:17;91466.00;;;2.11
79228;BMP280;68658;46.174;11.254;2023-04-15T03:10:43;91473.38;;;1.92
79228;BMP280;68658;46.174;11.254;2023-04-15T03:13:08;91472.53;;;1.81
79228;BMP280;68658;46.174;11.254;2023-04-15T03:15:34;91466.91;;;1.82
79228;BMP280;68658;46.174;11.254;2023-04-15T03:17:59;91471.94;;;1.91
79228;BMP280;68658;46.174;11.254;2023-04-15T03:20:25;91479.31;;;1.93
79228;BMP280;68658;46.174;11.254;2023-04-15T03:22:50;91469.09;;;1.89
79228;BMP280;68658;46.174;11.254;2023-04-15T03:25:16;91474.81;;;1.93
79228;BMP280;68658;46.174;11.254;2023-04-15T03:27:41;91479.00;;;1.85
79228;BMP280;68658;46.174;11.254;2023-04-15T03:30:07;91475.75;;;1.90
79228;BMP280;68658;46.174;11.254;2023-04-15T03:32:33;91475.09;;;1.95
79228;BMP280;68658;46.174;11.254;2023-04-15T03:34:58;91478.69;;;1.78
79228;BMP280;68658;46.174;11.254;2023-04-15T03:37:24;91477.75;;;1.81
79228;BMP280;68658;46.174;11.254;2023-04-15T03:39:49;91482.97;;;1.81
79228;BMP280;68658;46.174;11.254;2023-04-15T03:42:15;91484.38;;;1.82
79228;BMP280;68658;46.174;11.254;2023-04-15T03:44:40;91477.75;;;1.81
79228;BMP280;68658;46.174;11.254;2023-04-15T03:47:06;91480.63;;;1.83
79228;BMP280;68658;46.174;11.254;2023-04-15T03:49:31;91481.31;;;1.83
79228;BMP280;68658;46.174;11.254;2023-04-15T03:51:57;91484.84;;;1.80
79228;BMP280;68658;46.174;11.254;2023-04-15T03:54:23;91472.16;;;1.68
79228;BMP280;68658;46.174;11.254;2023-04-15T03:56:49;91477.50;;;1.59
79228;BMP280;68658;46.174;11.254;2023-04-15T03:59:15;91477.44;;;1.73
79228;BMP280;68658;46.174;11.254;2023-04-15T04:01:40;91484.69;;;1.64
79228;BMP280;68658;46.174;11.254;2023-04-15T04:04:06;91486.47;;;1.58
79228;BMP280;68658;46.174;11.254;2023-04-15T04:06:31;91483.63;;;1.56
79228;BMP280;68658;46.174;11.254;2023-04-15T04:08:57;91490.81;;;1.47
79228;BMP280;68658;46.174;11.254;2023-04-15T04:11:22;91488.22;;;1.47
79228;BMP280;68658;46.174;11.254;2023-04-15T04:13:48;91489.22;;;1.49
79228;BMP280;68658;46.174;11.254;2023-04-15T04:16:16;91487.78;;;1.48
79228;BMP280;68658;46.174;11.254;2023-04-15T04:18:41;91480.19;;;1.45
79228;BMP280;68658;46.174;11.254;2023-04-15T04:21:10;91479.25;;;1.48
79228;BMP280;68658;46.174;11.254;2023-04-15T04:23:35;91486.19;;;1.36
79228;BMP280;68658;46.174;11.254;2023-04-15T04:26:01;91486.94;;;1.37
79228;BMP280;68658;46.174;11.254;2023-04-15T04:28:26;91495.16;;;1.35
79228;BMP280;68658;46.174;11.254;2023-04-15T04:30:52;91492.91;;;1.43
79228;BMP280;68658;46.174;11.254;2023-04-15T04:33:18;91487.00;;;1.42
79228;BMP280;68658;46.174;11.254;2023-04-15T04:35:43;91483.75;;;1.47
79228;BMP280;68658;46.174;11.254;2023-04-15T04:38:09;91488.19;;;1.41
79228;BMP280;68658;46.174;11.254;2023-04-15T04:40:34;91488.03;;;1.50
79228;BMP280;68658;46.174;11.254;2023-04-15T04:43:00;91485.44;;;1.50
79228;BMP280;68658;46.174;11.254;2023-04-15T04:45:26;91488.50;;;1.49
79228;BMP280;68658;46.174;11.254;2023-04-15T04:47:51;91490.59;;;1.45
79228;BMP280;68658;46.174;11.254;2023-04-15T04:50:16;91493.19;;;1.45
79228;BMP280;68658;46.174;11.254;2023-04-15T04:52:42;91493.88;;;1.45
79228;BMP280;68658;46.174;11.254;2023-04-15T04:55:08;91493.03;;;1.53
79228;BMP280;68658;46.174;11.254;2023-04-15T04:57:33;91484.06;;;1.54
79228;BMP280;68658;46.174;11.254;2023-04-15T05:00:04;91492.44;;;1.44
79228;BMP280;68658;46.174;11.254;2023-04-15T05:02:30;91486.94;;;1.37
79228;BMP280;68658;46.174;11.254;2023-04-15T05:04:56;91490.50;;;1.39
79228;BMP280;68658;46.174;11.254;2023-04-15T05:07:22;91485.38;;;1.45
79228;BMP280;68658;46.174;11.254;2023-04-15T05:09:48;91484.34;;;1.56
79228;BMP280;68658;46.174;11.254;2023-04-15T05:12:13;91490.13;;;1.66
79228;BMP280;68658;46.174;11.254;2023-04-15T05:14:42;91484.97;;;1.71
79228;BMP280;68658;46.174;11.254;2023-04-15T05:17:07;91489.69;;;1.67
79228;BMP280;68658;46.174;11.254;2023-04-15T05:19:33;91488.91;;;1.81
79228;BMP280;68658;46.174;11.254;2023-04-15T05:21:59;91493.88;;;1.65
79228;BMP280;68658;46.174;11.254;2023-04-15T05:24:25;91493.97;;;1.70
79228;BMP280;68658;46.174;11.254;2023-04-15T05:26:50;91495.94;;;1.75
79228;BMP280;68658;46.174;11.254;2023-04-15T05:29:16;91495.41;;;1.71
79228;BMP280;68658;46.174;11.254;2023-04-15T05:31:41;91490.72;;;1.75
79228;BMP280;68658;46.174;11.254;2023-04-15T05:34:07;91506.44;;;1.86
79228;BMP280;68658;46.174;11.254;2023-04-15T05:36:32;91497.69;;;1.84
79228;BMP280;68658;46.174;11.254;2023-04-15T05:38:58;91497.97;;;1.91
79228;BMP280;68658;46.174;11.254;2023-04-15T05:41:23;91495.91;;;1.95
79228;BMP280;68658;46.174;11.254;2023-04-15T05:43:49;91500.72;;;2.02
79228;BMP280;68658;46.174;11.254;2023-04-15T05:46:14;91502.91;;;2.09
79228;BMP280;68658;46.174;11.254;2023-04-15T05:48:43;91505.59;;;2.15
79228;BMP280;68658;46.174;11.254;2023-04-15T05:51:08;91512.22;;;2.16
79228;BMP280;68658;46.174;11.254;2023-04-15T05:53:34;91510.69;;;2.29
79228;BMP280;68658;46.174;11.254;2023-04-15T05:56:00;91514.38;;;2.17
79228;BMP280;68658;46.174;11.254;2023-04-15T05:58:25;91507.25;;;2.18
79228;BMP280;68658;46.174;11.254;2023-04-15T06:00:51;91504.22;;;2.19
79228;BMP280;68658;46.174;11.254;2023-04-15T06:03:17;91509.53;;;2.30
79228;BMP280;68658;46.174;11.254;2023-04-15T06:05:43;91516.16;;;2.31
79228;BMP280;68658;46.174;11.254;2023-04-15T06:08:09;91514.78;;;2.35
79228;BMP280;68658;46.174;11.254;2023-04-15T06:10:36;91514.91;;;2.46
79228;BMP280;68658;46.174;11.254;2023-04-15T06:13:02;91518.97;;;2.53
79228;BMP280;68658;46.174;11.254;2023-04-15T06:15:28;91518.34;;;2.58
79228;BMP280;68658;46.174;11.254;2023-04-15T06:17:54;91518.50;;;2.49
79228;BMP280;68658;46.174;11.254;2023-04-15T06:20:20;91517.31;;;2.50
79228;BMP280;68658;46.174;11.254;2023-04-15T06:22:46;91519.03;;;2.58
79228;BMP280;68658;46.174;11.254;2023-04-15T06:25:11;91508.25;;;2.71
79228;BMP280;68658;46.174;11.254;2023-04-15T06:27:37;91522.03;;;2.77
79228;BMP280;68658;46.174;11.254;2023-04-15T06:30:03;91522.53;;;2.81
79228;BMP280;68658;46.174;11.254;2023-04-15T06:32:29;91532.47;;;2.77
79228;BMP280;68658;46.174;11.254;2023-04-15T06:34:55;91535.09;;;2.77
79228;BMP280;68658;46.174;11.254;2023-04-15T06:37:20;91536.16;;;2.90
79228;BMP280;68658;46.174;11.254;2023-04-15T06:39:46;91537.38;;;2.95
79228;BMP280;68658;46.174;11.254;2023-04-15T06:42:12;91549.31;;;3.06
79228;BMP280;68658;46.174;11.254;2023-04-15T06:44:38;91546.72;;;3.06
79228;BMP280;68658;46.174;11.254;2023-04-15T06:47:04;91544.59;;;3.10
79228;BMP280;68658;46.174;11.254;2023-04-15T06:49:30;91547.78;;;3.20
79228;BMP280;68658;46.174;11.254;2023-04-15T06:51:55;91548.56;;;3.37
79228;BMP280;68658;46.174;11.254;2023-04-15T06:54:21;91542.44;;;3.40
79228;BMP280;68658;46.174;11.254;2023-04-15T06:56:47;91541.84;;;3.56
79228;BMP280;68658;46.174;11.254;2023-04-15T06:59:12;91543.81;;;3.72
79228;BMP280;68658;46.174;11.254;2023-04-15T07:01:39;91543.94;;;3.93
79228;BMP280;68658;46.174;11.254;2023-04-15T07:04:06;91539.00;;;4.06
79228;BMP280;68658;46.174;11.254;2023-04-15T07:06:31;91542.38;;;4.18
79228;BMP280;68658;46.174;11.254;2023-04-15T07:08:58;91545.50;;;4.33
79228;BMP280;68658;46.174;11.254;2023-04-15T07:11:25;91543.41;;;4.48
79228;BMP280;68658;46.174;11.254;2023-04-15T07:13:51;91544.41;;;4.56
79228;BMP280;68658;46.174;11.254;2023-04-15T07:16:16;91538.00;;;4.73
79228;BMP280;68658;46.174;11.254;2023-04-15T07:18:42;91538.78;;;4.95
79228;BMP280;68658;46.174;11.254;2023-04-15T07:21:08;91540.44;;;5.09
79228;BMP280;68658;46.174;11.254;2023-04-15T07:23:34;91540.91;;;5.13
79228;BMP280;68658;46.174;11.254;2023-04-15T07:25:59;91535.44;;;5.11
79228;BMP280;68658;46.174;11.254;2023-04-15T07:28:25;91533.31;;;5.15
79228;BMP280;68658;46.174;11.254;2023-04-15T07:30:51;91528.06;;;5.04
79228;BMP280;68658;46.174;11.254;2023-04-15T07:33:16;91528.78;;;5.10
79228;BMP280;68658;46.174;11.254;2023-04-15T07:35:42;91523.56;;;5.10
79228;BMP280;68658;46.174;11.254;2023-04-15T07:38:08;91520.72;;;5.19
79228;BMP280;68658;46.174;11.254;2023-04-15T07:40:33;91524.97;;;5.33
79228;BMP280;68658;46.174;11.254;2023-04-15T07:42:59;91523.28;;;5.57
79228;BMP280;68658;46.174;11.254;2023-04-15T07:45:24;91531.63;;;5.56
79228;BMP280;68658;46.174;11.254;2023-04-15T07:47:52;91525.66;;;5.61
79228;BMP280;68658;46.174;11.254;2023-04-15T07:50:20;91525.16;;;5.73
79228;BMP280;68658;46.174;11.254;2023-04-15T07:52:48;91509.41;;;5.95
79228;BMP280;68658;46.174;11.254;2023-04-15T07:55:13;91508.88;;;6.13
79228;BMP280;68658;46.174;11.254;2023-04-15T07:57:41;91514.31;;;6.20
79228;BMP280;68658;46.174;11.254;2023-04-15T08:00:08;91511.88;;;6.33
79228;BMP280;68658;46.174;11.254;2023-04-15T08:02:34;91512.28;;;6.48
79228;BMP280;68658;46.174;11.254;2023-04-15T08:04:59;91506.84;;;6.41
79228;BMP280;68658;46.174;11.254;2023-04-15T08:07:27;91499.13;;;6.59
79228;BMP280;68658;46.174;11.254;2023-04-15T08:09:52;91495.22;;;6.77
79228;BMP280;68658;46.174;11.254;2023-04-15T08:12:18;91503.28;;;6.84
79228;BMP280;68658;46.174;11.254;2023-04-15T08:14:43;91501.56;;;7.21
79228;BMP280;68658;46.174;11.254;2023-04-15T08:17:09;91491.34;;;7.47
79228;BMP280;68658;46.174;11.254;2023-04-15T08:19:34;91494.47;;;7.69
79228;BMP280;68658;46.174;11.254;2023-04-15T08:22:00;91483.84;;;7.57
79228;BMP280;68658;46.174;11.254;2023-04-15T08:24:26;91481.88;;;7.63
79228;BMP280;68658;46.174;11.254;2023-04-15T08:26:52;91488.66;;;7.53
79228;BMP280;68658;46.174;11.254;2023-04-15T08:29:17;91479.75;;;7.61
79228;BMP280;68658;46.174;11.254;2023-04-15T08:31:43;91478.22;;;7.71
79228;BMP280;68658;46.174;11.254;2023-04-15T08:34:10;91478.09;;;7.82
79228;BMP280;68658;46.174;11.254;2023-04-15T08:36:36;91485.63;;;7.96
79228;BMP280;68658;46.174;11.254;2023-04-15T08:39:02;91484.63;;;7.75
79228;BMP280;68658;46.174;11.254;2023-04-15T08:41:33;91472.19;;;8.00
79228;BMP280;68658;46.174;11.254;2023-04-15T08:44:04;91482.50;;;8.40
79228;BMP280;68658;46.174;11.254;2023-04-15T08:46:31;91478.88;;;8.43
79228;BMP280;68658;46.174;11.254;2023-04-15T08:48:57;91471.69;;;8.25
79228;BMP280;68658;46.174;11.254;2023-04-15T08:51:23;91480.63;;;8.72
79228;BMP280;68658;46.174;11.254;2023-04-15T08:53:49;91471.59;;;9.04
79228;BMP280;68658;46.174;11.254;2023-04-15T08:56:15;91471.53;;;8.91
79228;BMP280;68658;46.174;11.254;2023-04-15T08:58:43;91480.44;;;8.88
79228;BMP280;68658;46.174;11.254;2023-04-15T09:01:10;91461.41;;;9.26
79228;BMP280;68658;46.174;11.254;2023-04-15T09:03:36;91461.09;;;9.17
79228;BMP280;68658;46.174;11.254;2023-04-15T09:06:05;91467.28;;;8.88
79228;BMP280;68658;46.174;11.254;2023-04-15T09:08:32;91460.06;;;8.89
79228;BMP280;68658;46.174;11.254;2023-04-15T09:10:58;91466.34;;;8.86
79228;BMP280;68658;46.174;11.254;2023-04-15T09:13:24;91462.72;;;8.70
79228;BMP280;68658;46.174;11.254;2023-04-15T09:15:49;91462.63;;;8.94
79228;BMP280;68658;46.174;11.254;2023-04-15T09:18:36;91451.00;;;9.34
79228;BMP280;68658;46.174;11.254;2023-04-15T09:23:31;91452.31;;;9.40
79228;BMP280;68658;46.174;11.254;2023-04-15T09:25:56;91450.13;;;9.57
79228;BMP280;68658;46.174;11.254;2023-04-15T09:28:25;91451.22;;;10.06
79228;BMP280;68658;46.174;11.254;2023-04-15T09:30:54;91449.38;;;10.27
79228;BMP280;68658;46.174;11.254;2023-04-15T09:33:20;91439.72;;;10.29
79228;BMP280;68658;46.174;11.254;2023-04-15T09:36:12;91443.09;;;10.04
79228;BMP280;68658;46.174;11.254;2023-04-15T09:38:53;91443.25;;;9.93
79228;BMP280;68658;46.174;11.254;2023-04-15T09:41:19;91443.06;;;9.91
79228;BMP280;68658;46.174;11.254;2023-04-15T09:43:45;91439.63;;;10.35
79228;BMP280;68658;46.174;11.254;2023-04-15T09:46:10;91436.16;;;10.40
79228;BMP280;68658;46.174;11.254;2023-04-15T09:48:36;91431.97;;;10.44
79228;BMP280;68658;46.174;11.254;2023-04-15T09:51:02;91429.03;;;10.48
79228;BMP280;68658;46.174;11.254;2023-04-15T09:53:27;91428.38;;;10.68
79228;BMP280;68658;46.174;11.254;2023-04-15T09:55:59;91428.72;;;10.84
79228;BMP280;68658;46.174;11.254;2023-04-15T09:58:31;91422.41;;;11.08
79228;BMP280;68658;46.174;11.254;2023-04-15T10:00:59;91428.03;;;11.04
79228;BMP280;68658;46.174;11.254;2023-04-15T10:03:28;91418.75;;;11.11
79228;BMP280;68658;46.174;11.254;2023-04-15T10:06:00;91423.72;;;11.14
79228;BMP280;68658;46.174;11.254;2023-04-15T10:08:32;91413.34;;;11.16
79228;BMP280;68658;46.174;11.254;2023-04-15T10:11:01;91417.66;;;11.27
79228;BMP280;68658;46.174;11.254;2023-04-15T10:13:29;91413.19;;;11.42
79228;BMP280;68658;46.174;11.254;2023-04-15T10:16:11;91409.88;;;11.62
79228;BMP280;68658;46.174;11.254;2023-04-15T10:18:41;91408.56;;;11.76
79228;BMP280;68658;46.174;11.254;2023-04-15T10:21:08;91401.34;;;12.12
79228;BMP280;68658;46.174;11.254;2023-04-15T10:23:34;91407.88;;;12.11
79228;BMP280;68658;46.174;11.254;2023-04-15T10:26:02;91404.31;;;12.08
79228;BMP280;68658;46.174;11.254;2023-04-15T10:28:28;91392.56;;;12.59
79228;BMP280;68658;46.174;11.254;2023-04-15T10:30:54;91385.59;;;12.34
79228;BMP280;68658;46.174;11.254;2023-04-15T10:33:22;91393.13;;;12.80
79228;BMP280;68658;46.174;11.254;2023-04-15T10:35:49;91392.88;;;13.21
79228;BMP280;68658;46.174;11.254;2023-04-15T10:38:41;91389.13;;;12.94
79228;BMP280;68658;46.174;11.254;2023-04-15T10:41:20;91391.00;;;12.71
79228;BMP280;68658;46.174;11.254;2023-04-15T10:43:53;91390.19;;;12.41
79228;BMP280;68658;46.174;11.254;2023-04-15T10:46:22;91395.59;;;12.78
79228;BMP280;68658;46.174;11.254;2023-04-15T10:48:49;91391.03;;;12.79
79228;BMP280;68658;46.174;11.254;2023-04-15T10:51:16;91392.66;;;12.89
79228;BMP280;68658;46.174;11.254;2023-04-15T10:53:50;91398.78;;;12.84
79228;BMP280;68658;46.174;11.254;2023-04-15T10:56:21;91393.94;;;13.25
79228;BMP280;68658;46.174;11.254;2023-04-15T10:58:46;91386.69;;;13.11
79228;BMP280;68658;46.174;11.254;2023-04-15T11:01:12;91389.34;;;13.26
79228;BMP280;68658;46.174;11.254;2023-04-15T11:03:39;91382.09;;;13.56
79228;BMP280;68658;46.174;11.254;2023-04-15T11:06:07;91379.97;;;13.32
79228;BMP280;68658;46.174;11.254;2023-04-15T11:09:00;91378.41;;;13.37
79228;BMP280;68658;46.174;11.254;2023-04-15T11:12:07;91376.94;;;13.81
79228;BMP280;68658;46.174;11.254;2023-04-15T11:14:39;91371.44;;;14.08
79228;BMP280;68658;46.174;11.254;2023-04-15T11:17:06;91375.84;;;14.13
79228;BMP280;68658;46.174;11.254;2023-04-15T11:19:38;91369.94;;;14.37
79228;BMP280;68658;46.174;11.254;2023-04-15T11:22:10;91373.59;;;14.49
79228;BMP280;68658;46.174;11.254;2023-04-15T11:24:46;91371.97;;;13.99
79228;BMP280;68658;46.174;11.254;2023-04-15T11:27:21;91379.44;;;13.93
79228;BMP280;68658;46.174;11.254;2023-04-15T11:29:47;91375.13;;;14.28
79228;BMP280;68658;46.174;11.254;2023-04-15T11:32:13;91381.75;;;13.75
79228;BMP280;68658;46.174;11.254;2023-04-15T11:34:38;91377.56;;;14.33
79228;BMP280;68658;46.174;11.254;2023-04-15T11:37:06;91385.97;;;14.62
79228;BMP280;68658;46.174;11.254;2023-04-15T11:39:32;91383.16;;;14.52
79228;BMP280;68658;46.174;11.254;2023-04-15T11:41:58;91380.56;;;14.37
79228;BMP280;68658;46.174;11.254;2023-04-15T11:44:23;91380.09;;;14.70
79228;BMP280;68658;46.174;11.254;2023-04-15T11:46:48;91384.78;;;14.87
79228;BMP280;68658;46.174;11.254;2023-04-15T11:49:29;91383.50;;;14.56
79228;BMP280;68658;46.174;11.254;2023-04-15T11:51:55;91386.66;;;14.00
79228;BMP280;68658;46.174;11.254;2023-04-15T11:54:21;91392.28;;;14.27
79228;BMP280;68658;46.174;11.254;2023-04-15T11:56:50;91389.78;;;14.75
79228;BMP280;68658;46.174;11.254;2023-04-15T11:59:16;91394.59;;;14.30
79228;BMP280;68658;46.174;11.254;2023-04-15T12:01:42;91386.84;;;14.96
79228;BMP280;68658;46.174;11.254;2023-04-15T12:04:11;91396.91;;;15.85
79228;BMP280;68658;46.174;11.254;2023-04-15T12:06:37;91383.00;;;15.46
79228;BMP280;68658;46.174;11.254;2023-04-15T12:11:45;91388.69;;;15.25
79228;BMP280;68658;46.174;11.254;2023-04-15T12:16:51;91392.03;;;15.74
79228;BMP280;68658;46.174;11.254;2023-04-15T12:19:26;91387.47;;;16.25
79228;BMP280;68658;46.174;11.254;2023-04-15T12:22:03;91379.75;;;16.37
79228;BMP280;68658;46.174;11.254;2023-04-15T12:24:34;91383.03;;;15.70
79228;BMP280;68658;46.174;11.254;2023-04-15T12:27:06;91383.28;;;15.57
79228;BMP280;68658;46.174;11.254;2023-04-15T12:29:34;91388.03;;;15.42
79228;BMP280;68658;46.174;11.254;2023-04-15T12:32:13;91384.88;;;16.01
79228;BMP280;68658;46.174;11.254;2023-04-15T12:34:39;91382.47;;;14.91
79228;BMP280;68658;46.174;11.254;2023-04-15T12:37:07;91382.59;;;15.00
79228;BMP280;68658;46.174;11.254;2023-04-15T12:39:35;91382.97;;;14.97
79228;BMP280;68658;46.174;11.254;2023-04-15T12:42:04;91393.97;;;14.93
79228;BMP280;68658;46.174;11.254;2023-04-15T12:44:30;91394.09;;;15.35
79228;BMP280;68658;46.174;11.254;2023-04-15T12:46:58;91387.91;;;15.56
79228;BMP280;68658;46.174;11.254;2023-04-15T12:49:24;91401.69;;;15.62
79228;BMP280;68658;46.174;11.254;2023-04-15T12:51:55;91395.31;;;15.02
79228;BMP280;68658;46.174;11.254;2023-04-15T12:54:21;91396.50;;;16.30
79228;BMP280;68658;46.174;11.254;2023-04-15T12:56:48;91407.81;;;15.97
79228;BMP280;68658;46.174;11.254;2023-04-15T12:59:14;91390.97;;;15.29
79228;BMP280;68658;46.174;11.254;2023-04-15T13:01:41;91414.94;;;15.46
79228;BMP280;68658;46.174;11.254;2023-04-15T13:04:06;91415.97;;;17.79
79228;BMP280;68658;46.174;11.254;2023-04-15T13:06:32;91416.75;;;18.81
79228;BMP280;68658;46.174;11.254;2023-04-15T13:09:07;91422.66;;;20.58
79228;BMP280;68658;46.174;11.254;2023-04-15T13:11:35;91414.28;;;20.42
79228;BMP280;68658;46.174;11.254;2023-04-15T13:14:03;91406.50;;;20.46
79228;BMP280;68658;46.174;11.254;2023-04-15T13:16:31;91403.44;;;19.80
79228;BMP280;68658;46.174;11.254;2023-04-15T13:18:58;91413.47;;;18.55
79228;BMP280;68658;46.174;11.254;2023-04-15T13:21:23;91419.97;;;17.97
79228;BMP280;68658;46.174;11.254;2023-04-15T13:23:49;91413.38;;;17.62
79228;BMP280;68658;46.174;11.254;2023-04-15T13:26:17;91417.84;;;18.78
79228;BMP280;68658;46.174;11.254;2023-04-15T13:28:43;91415.94;;;19.56
79228;BMP280;68658;46.174;11.254;2023-04-15T13:31:09;91412.47;;;18.97
79228;BMP280;68658;46.174;11.254;2023-04-15T13:33:34;91407.00;;;18.95
79228;BMP280;68658;46.174;11.254;2023-04-15T13:36:03;91405.03;;;18.86
79228;BMP280;68658;46.174;11.254;2023-04-15T13:38:29;91410.09;;;18.82
79228;BMP280;68658;46.174;11.254;2023-04-15T13:40:54;91406.28;;;17.83
79228;BMP280;68658;46.174;11.254;2023-04-15T13:43:20;91414.72;;;17.01
79228;BMP280;68658;46.174;11.254;2023-04-15T13:45:46;91414.06;;;17.10
79228;BMP280;68658;46.174;11.254;2023-04-15T13:48:12;91414.69;;;16.58
79228;BMP280;68658;46.174;11.254;2023-04-15T13:50:38;91411.78;;;16.46
79228;BMP280;68658;46.174;11.254;2023-04-15T13:53:03;91416.41;;;16.29
79228;BMP280;68658;46.174;11.254;2023-04-15T13:55:29;91415.22;;;14.93
79228;BMP280;68658;46.174;11.254;2023-04-15T13:57:58;91421.31;;;14.79
79228;BMP280;68658;46.174;11.254;2023-04-15T14:00:24;91422.91;;;14.74
79228;BMP280;68658;46.174;11.254;2023-04-15T14:02:50;91422.41;;;14.76
79228;BMP280;68658;46.174;11.254;2023-04-15T14:05:18;91421.38;;;14.64
79228;BMP280;68658;46.174;11.254;2023-04-15T14:07:44;91429.09;;;14.30
79228;BMP280;68658;46.174;11.254;2023-04-15T14:10:09;91426.41;;;14.45